createdAt,value
2018-12-04T00:00:25.723Z,21.50
2018-12-04T00:01:04.602Z,21.51
2018-12-04T00:01:42.603Z,21.52
2018-12-04T00:02:20.275Z,21.52
2018-12-04T00:02:58.435Z,21.52
2018-12-04T00:03:36.308Z,21.52
2018-12-04T00:04:14.548Z,21.53
2018-12-04T00:04:52.578Z,21.53
2018-12-04T00:05:30.193Z,21.53
2018-12-04T00:06:08.131Z,21.53
2018-12-04T00:06:45.836Z,21.52
2018-12-04T00:07:23.966Z,21.52
2018-12-04T00:08:01.465Z,21.52
2018-12-04T00:08:39.297Z,21.54
2018-12-04T00:09:16.842Z,21.53
2018-12-04T00:09:54.772Z,21.54
2018-12-04T00:10:32.597Z,21.54
2018-12-04T00:11:10.409Z,21.54
2018-12-04T00:11:48.392Z,21.53
2018-12-04T00:12:26.007Z,21.53
2018-12-04T00:13:03.745Z,21.54
2018-12-04T00:13:41.488Z,21.55
2018-12-04T00:14:19.232Z,21.54
2018-12-04T00:14:56.803Z,21.53
2018-12-04T00:15:34.780Z,21.56
2018-12-04T00:16:12.617Z,21.55
2018-12-04T00:16:50.474Z,21.54
2018-12-04T00:17:28.096Z,21.55
2018-12-04T00:18:05.953Z,21.56
2018-12-04T00:18:43.739Z,21.56
2018-12-04T00:19:21.733Z,21.56
2018-12-04T00:19:59.558Z,21.56
2018-12-04T00:20:37.433Z,21.57
2018-12-04T00:21:15.136Z,21.56
2018-12-04T00:21:53.034Z,21.56
2018-12-04T00:22:30.612Z,21.56
2018-12-04T00:23:08.403Z,21.57
2018-12-04T00:23:46.384Z,21.57
2018-12-04T00:24:24.405Z,21.57
2018-12-04T00:25:02.495Z,21.57
2018-12-04T00:25:40.222Z,21.57
2018-12-04T00:26:17.793Z,21.57
2018-12-04T00:26:55.603Z,21.57
2018-12-04T00:27:33.621Z,21.57
2018-12-04T00:28:11.402Z,21.57
2018-12-04T00:28:49.343Z,21.57
2018-12-04T00:29:27.244Z,21.58
2018-12-04T00:30:05.231Z,21.58
2018-12-04T00:30:42.893Z,21.58
2018-12-04T00:31:20.765Z,21.57
2018-12-04T00:31:59.032Z,21.57
2018-12-04T00:32:36.732Z,21.56
2018-12-04T00:33:14.472Z,21.57
2018-12-04T00:33:52.104Z,21.57
2018-12-04T00:34:29.979Z,21.57
2018-12-04T00:35:07.962Z,21.57
2018-12-04T00:35:45.920Z,21.58
2018-12-04T00:36:23.750Z,21.59
2018-12-04T00:37:01.461Z,21.58
2018-12-04T00:37:39.631Z,21.58
2018-12-04T00:38:17.682Z,21.59
2018-12-04T00:38:55.806Z,21.58
2018-12-04T00:39:33.494Z,21.59
2018-12-04T00:40:11.399Z,21.59
2018-12-04T00:40:49.566Z,21.59
2018-12-04T00:41:27.171Z,21.58
2018-12-04T00:42:05.073Z,21.57
2018-12-04T00:42:43.011Z,21.58
2018-12-04T00:43:20.768Z,21.58
2018-12-04T00:43:58.540Z,21.59
2018-12-04T00:44:36.301Z,21.58
2018-12-04T00:45:14.187Z,21.59
2018-12-04T00:45:51.992Z,21.59
2018-12-04T00:46:29.842Z,21.58
2018-12-04T00:47:07.953Z,21.59
2018-12-04T00:47:45.633Z,21.59
2018-12-04T00:48:23.307Z,21.59
2018-12-04T00:49:01.090Z,21.59
2018-12-04T00:49:39.310Z,21.60
2018-12-04T00:50:17.301Z,21.59
2018-12-04T00:50:55.318Z,21.59
2018-12-04T00:51:33.035Z,21.60
2018-12-04T00:52:10.719Z,21.60
2018-12-04T00:52:48.442Z,21.60
2018-12-04T00:53:26.250Z,21.60
2018-12-04T00:54:04.000Z,21.59
2018-12-04T00:54:41.818Z,21.60
2018-12-04T00:55:19.708Z,21.60
2018-12-04T00:55:57.393Z,21.59
2018-12-04T00:56:35.219Z,21.60
2018-12-04T00:57:13.310Z,21.61
2018-12-04T00:57:51.358Z,21.60
2018-12-04T00:58:29.892Z,21.60
2018-12-04T00:59:07.711Z,21.59
2018-12-04T00:59:45.728Z,21.60
2018-12-04T01:00:23.397Z,21.60
2018-12-04T01:01:01.809Z,21.61
2018-12-04T01:01:39.878Z,21.61
2018-12-04T01:02:17.856Z,21.61
2018-12-04T01:02:55.611Z,21.61
2018-12-04T01:03:33.369Z,21.61
2018-12-04T01:04:11.247Z,21.61
2018-12-04T01:04:48.856Z,21.60
2018-12-04T01:05:26.690Z,21.62
2018-12-04T01:06:04.447Z,21.61
2018-12-04T01:06:42.468Z,21.60
2018-12-04T01:07:21.340Z,21.61
2018-12-04T01:07:59.197Z,21.60
2018-12-04T01:08:36.969Z,21.61
2018-12-04T01:09:14.652Z,21.62
2018-12-04T01:09:52.589Z,21.62
2018-12-04T01:10:30.527Z,21.61
2018-12-04T01:11:08.081Z,21.61
2018-12-04T01:11:45.942Z,21.61
2018-12-04T01:12:23.542Z,21.60
2018-12-04T01:13:02.052Z,21.62
2018-12-04T01:13:40.186Z,21.61
2018-12-04T01:14:17.995Z,21.61
2018-12-04T01:14:55.775Z,21.61
2018-12-04T01:15:33.441Z,21.62
2018-12-04T01:16:11.106Z,21.62
2018-12-04T01:16:48.728Z,21.63
2018-12-04T01:17:26.766Z,21.62
2018-12-04T01:18:04.486Z,21.61
2018-12-04T01:18:42.143Z,21.62
2018-12-04T01:19:19.889Z,21.61
2018-12-04T01:19:57.602Z,21.62
2018-12-04T01:20:35.456Z,21.62
2018-12-04T01:21:13.666Z,21.63
2018-12-04T01:21:51.335Z,21.62
2018-12-04T01:22:29.027Z,21.62
2018-12-04T01:23:06.797Z,21.62
2018-12-04T01:23:44.529Z,21.62
2018-12-04T01:24:22.456Z,21.61
2018-12-04T01:25:01.147Z,21.62
2018-12-04T01:25:39.027Z,21.63
2018-12-04T01:26:17.005Z,21.62
2018-12-04T01:26:54.627Z,21.62
2018-12-04T01:27:32.415Z,21.63
2018-12-04T01:28:10.127Z,21.63
2018-12-04T01:28:47.776Z,21.63
2018-12-04T01:29:25.803Z,21.62
2018-12-04T01:30:03.865Z,21.63
2018-12-04T01:30:41.627Z,21.62
2018-12-04T01:31:19.414Z,21.62
2018-12-04T01:31:57.466Z,21.63
2018-12-04T01:32:35.291Z,21.62
2018-12-04T01:33:13.176Z,21.63
2018-12-04T01:33:51.068Z,21.62
2018-12-04T01:34:28.817Z,21.63
2018-12-04T01:35:06.766Z,21.63
2018-12-04T01:35:44.578Z,21.63
2018-12-04T01:36:22.610Z,21.63
2018-12-04T01:37:00.255Z,21.64
2018-12-04T01:37:38.087Z,21.63
2018-12-04T01:38:15.917Z,21.63
2018-12-04T01:38:53.745Z,21.64
2018-12-04T01:39:31.550Z,21.62
2018-12-04T01:40:09.643Z,21.63
2018-12-04T01:40:47.761Z,21.63
2018-12-04T01:41:25.443Z,21.63
2018-12-04T01:42:03.225Z,21.64
2018-12-04T01:42:41.066Z,21.63
2018-12-04T01:43:18.949Z,21.63
2018-12-04T01:43:57.079Z,21.64
2018-12-04T01:44:34.698Z,21.63
2018-12-04T01:45:12.283Z,21.64
2018-12-04T01:45:50.163Z,21.63
2018-12-04T01:46:28.122Z,21.63
2018-12-04T01:47:06.015Z,21.64
2018-12-04T01:47:43.897Z,21.64
2018-12-04T01:48:21.523Z,21.64
2018-12-04T01:48:59.235Z,21.63
2018-12-04T01:49:37.174Z,21.63
2018-12-04T01:50:14.742Z,21.64
2018-12-04T01:50:52.375Z,21.64
2018-12-04T01:51:29.923Z,21.63
2018-12-04T01:52:07.367Z,21.64
2018-12-04T01:52:45.019Z,21.64
2018-12-04T01:53:22.614Z,21.64
2018-12-04T01:54:00.328Z,21.63
2018-12-04T01:54:38.113Z,21.64
2018-12-04T01:55:16.203Z,21.65
2018-12-04T01:55:53.849Z,21.63
2018-12-04T01:56:31.470Z,21.65
2018-12-04T01:57:09.222Z,21.64
2018-12-04T01:57:47.121Z,21.65
2018-12-04T01:58:25.145Z,21.65
2018-12-04T01:59:03.081Z,21.65
2018-12-04T01:59:41.019Z,21.64
2018-12-04T02:00:18.917Z,21.65
2018-12-04T02:00:56.706Z,21.64
2018-12-04T02:01:34.733Z,21.65
2018-12-04T02:02:12.461Z,21.65
2018-12-04T02:02:50.101Z,21.65
2018-12-04T02:03:27.911Z,21.65
2018-12-04T02:04:05.914Z,21.65
2018-12-04T02:04:43.760Z,21.65
2018-12-04T02:05:21.601Z,21.65
2018-12-04T02:05:59.532Z,21.65
2018-12-04T02:06:37.431Z,21.66
2018-12-04T02:07:15.339Z,21.66
2018-12-04T02:07:53.172Z,21.66
2018-12-04T02:08:31.320Z,21.66
2018-12-04T02:09:09.084Z,21.66
2018-12-04T02:09:46.529Z,21.65
2018-12-04T02:10:24.327Z,21.65
2018-12-04T02:11:02.391Z,21.66
2018-12-04T02:11:40.090Z,21.66
2018-12-04T02:12:17.740Z,21.66
2018-12-04T02:12:55.512Z,21.65
2018-12-04T02:13:34.931Z,21.65
2018-12-04T02:14:12.693Z,21.66
2018-12-04T02:14:50.330Z,21.66
2018-12-04T02:15:28.163Z,21.65
2018-12-04T02:16:05.850Z,21.66
2018-12-04T02:16:43.551Z,21.66
2018-12-04T02:17:21.724Z,21.66
2018-12-04T02:18:00.235Z,21.66
2018-12-04T02:18:37.958Z,21.67
2018-12-04T02:19:15.879Z,21.67
2018-12-04T02:19:53.565Z,21.66
2018-12-04T02:20:31.340Z,21.66
2018-12-04T02:21:09.073Z,21.66
2018-12-04T02:21:47.269Z,21.66
2018-12-04T02:22:25.028Z,21.66
2018-12-04T02:23:03.010Z,21.66
2018-12-04T02:23:40.987Z,21.66
2018-12-04T02:24:18.819Z,21.66
2018-12-04T02:24:56.679Z,21.66
2018-12-04T02:25:34.488Z,21.66
2018-12-04T02:26:12.598Z,21.66
2018-12-04T02:26:50.522Z,21.66
2018-12-04T02:27:28.252Z,21.67
2018-12-04T02:28:06.233Z,21.67
2018-12-04T02:28:44.089Z,21.67
2018-12-04T02:29:22.011Z,21.66
2018-12-04T02:29:59.714Z,21.67
2018-12-04T02:30:37.447Z,21.66
2018-12-04T02:31:15.421Z,21.66
2018-12-04T02:31:53.147Z,21.67
2018-12-04T02:32:31.102Z,21.66
2018-12-04T02:33:09.194Z,21.67
2018-12-04T02:33:46.951Z,21.67
2018-12-04T02:34:24.989Z,21.67
2018-12-04T02:35:02.647Z,21.66
2018-12-04T02:35:40.562Z,21.66
2018-12-04T02:36:18.452Z,21.67
2018-12-04T02:36:56.131Z,21.67
2018-12-04T02:37:34.208Z,21.66
2018-12-04T02:38:12.618Z,21.67
2018-12-04T02:38:50.372Z,21.67
2018-12-04T02:39:28.298Z,21.67
2018-12-04T02:40:06.498Z,21.66
2018-12-04T02:40:43.970Z,21.67
2018-12-04T02:41:21.786Z,21.67
2018-12-04T02:41:59.752Z,21.67
2018-12-04T02:42:37.429Z,21.67
2018-12-04T02:43:15.250Z,21.67
2018-12-04T02:43:53.198Z,21.67
2018-12-04T02:44:31.116Z,21.67
2018-12-04T02:45:09.040Z,21.67
2018-12-04T02:45:46.996Z,21.67
2018-12-04T02:46:24.608Z,21.67
2018-12-04T02:47:02.756Z,21.67
2018-12-04T02:47:40.486Z,21.68
2018-12-04T02:48:18.542Z,21.67
2018-12-04T02:48:56.326Z,21.68
2018-12-04T02:49:34.125Z,21.67
2018-12-04T02:50:11.956Z,21.67
2018-12-04T02:50:49.849Z,21.67
2018-12-04T02:51:27.723Z,21.68
2018-12-04T02:52:05.646Z,21.67
2018-12-04T02:52:43.808Z,21.67
2018-12-04T02:53:21.736Z,21.67
2018-12-04T02:53:59.463Z,21.68
2018-12-04T02:54:37.468Z,21.67
2018-12-04T02:55:15.637Z,21.67
2018-12-04T02:55:53.540Z,21.67
2018-12-04T02:56:31.499Z,21.67
2018-12-04T02:57:09.526Z,21.68
2018-12-04T02:57:47.681Z,21.68
2018-12-04T02:58:25.460Z,21.68
2018-12-04T02:59:03.508Z,21.68
2018-12-04T02:59:41.298Z,21.68
2018-12-04T03:00:19.350Z,21.67
2018-12-04T03:00:57.089Z,21.68
2018-12-04T03:01:35.070Z,21.68
2018-12-04T03:02:13.060Z,21.68
2018-12-04T03:02:50.987Z,21.68
2018-12-04T03:03:28.947Z,21.68
2018-12-04T03:04:06.669Z,21.67
2018-12-04T03:04:44.511Z,21.68
2018-12-04T03:05:23.320Z,21.69
2018-12-04T03:06:01.022Z,21.68
2018-12-04T03:06:39.162Z,21.69
2018-12-04T03:07:17.027Z,21.69
2018-12-04T03:07:54.851Z,21.68
2018-12-04T03:08:32.759Z,21.68
2018-12-04T03:09:10.612Z,21.68
2018-12-04T03:09:48.462Z,21.69
2018-12-04T03:10:26.501Z,21.69
2018-12-04T03:11:04.211Z,21.69
2018-12-04T03:11:42.143Z,21.68
2018-12-04T03:12:20.347Z,21.69
2018-12-04T03:12:58.184Z,21.69
2018-12-04T03:13:35.874Z,21.69
2018-12-04T03:14:14.943Z,21.70
2018-12-04T03:14:52.468Z,21.69
2018-12-04T03:15:30.974Z,21.69
2018-12-04T03:16:09.063Z,21.69
2018-12-04T03:16:46.999Z,21.69
2018-12-04T03:17:24.924Z,21.69
2018-12-04T03:18:02.573Z,21.69
2018-12-04T03:18:40.466Z,21.69
2018-12-04T03:19:18.145Z,21.70
2018-12-04T03:19:55.887Z,21.69
2018-12-04T03:20:33.613Z,21.70
2018-12-04T03:21:11.484Z,21.69
2018-12-04T03:21:49.301Z,21.71
2018-12-04T03:22:27.270Z,21.69
2018-12-04T03:23:05.245Z,21.70
2018-12-04T03:23:43.379Z,21.70
2018-12-04T03:24:21.402Z,21.71
2018-12-04T03:24:59.107Z,21.71
2018-12-04T03:25:37.103Z,21.70
2018-12-04T03:26:14.810Z,21.70
2018-12-04T03:26:52.577Z,21.70
2018-12-04T03:27:30.705Z,21.71
2018-12-04T03:28:08.682Z,21.70
2018-12-04T03:28:46.316Z,21.70
2018-12-04T03:29:24.377Z,21.71
2018-12-04T03:30:01.956Z,21.71
2018-12-04T03:30:40.588Z,21.72
2018-12-04T03:31:18.138Z,21.71
2018-12-04T03:31:55.846Z,21.72
2018-12-04T03:32:33.781Z,21.71
2018-12-04T03:33:11.879Z,21.71
2018-12-04T03:33:49.851Z,21.72
2018-12-04T03:34:27.873Z,21.72
2018-12-04T03:35:06.068Z,21.73
2018-12-04T03:35:43.749Z,21.72
2018-12-04T03:36:21.368Z,21.73
2018-12-04T03:36:59.289Z,21.72
2018-12-04T03:37:37.390Z,21.72
2018-12-04T03:38:14.974Z,21.73
2018-12-04T03:38:52.631Z,21.73
2018-12-04T03:39:30.318Z,21.72
2018-12-04T03:40:08.078Z,21.73
2018-12-04T03:40:45.940Z,21.73
2018-12-04T03:41:23.943Z,21.73
2018-12-04T03:42:01.609Z,21.73
2018-12-04T03:42:39.442Z,21.73
2018-12-04T03:43:17.080Z,21.73
2018-12-04T03:43:54.958Z,21.73
2018-12-04T03:44:32.870Z,21.74
2018-12-04T03:45:10.644Z,21.74
2018-12-04T03:45:48.440Z,21.74
2018-12-04T03:46:26.476Z,21.75
2018-12-04T03:47:04.438Z,21.75
2018-12-04T03:47:42.146Z,21.75
2018-12-04T03:48:19.812Z,21.74
2018-12-04T03:48:57.719Z,21.74
2018-12-04T03:49:35.667Z,21.74
2018-12-04T03:50:13.877Z,21.75
2018-12-04T03:50:51.547Z,21.74
2018-12-04T03:51:29.680Z,21.75
2018-12-04T03:52:07.722Z,21.75
2018-12-04T03:52:45.263Z,21.75
2018-12-04T03:53:23.141Z,21.75
2018-12-04T03:54:01.521Z,21.76
2018-12-04T03:54:39.463Z,21.75
2018-12-04T03:55:17.116Z,21.75
2018-12-04T03:55:55.079Z,21.76
2018-12-04T03:56:33.844Z,21.75
2018-12-04T03:57:11.824Z,21.76
2018-12-04T03:57:49.340Z,21.76
2018-12-04T03:58:27.058Z,21.76
2018-12-04T03:59:04.987Z,21.76
2018-12-04T03:59:43.103Z,21.76
2018-12-04T04:00:20.906Z,21.77
2018-12-04T04:00:58.994Z,21.76
2018-12-04T04:01:36.765Z,21.76
2018-12-04T04:02:14.582Z,21.77
2018-12-04T04:02:52.502Z,21.77
2018-12-04T04:03:30.473Z,21.77
2018-12-04T04:04:08.542Z,21.77
2018-12-04T04:04:46.191Z,21.76
2018-12-04T04:05:24.251Z,21.76
2018-12-04T04:06:02.189Z,21.77
2018-12-04T04:06:40.320Z,21.77
2018-12-04T04:07:18.276Z,21.78
2018-12-04T04:07:56.065Z,21.77
2018-12-04T04:08:34.284Z,21.77
2018-12-04T04:09:11.950Z,21.77
2018-12-04T04:09:50.484Z,21.78
2018-12-04T04:10:28.235Z,21.77
2018-12-04T04:11:06.594Z,21.78
2018-12-04T04:11:44.561Z,21.78
2018-12-04T04:12:22.369Z,21.79
2018-12-04T04:13:00.261Z,21.79
2018-12-04T04:13:38.139Z,21.78
2018-12-04T04:14:16.139Z,21.78
2018-12-04T04:14:54.224Z,21.80
2018-12-04T04:15:31.820Z,21.79
2018-12-04T04:16:10.153Z,21.78
2018-12-04T04:16:47.759Z,21.78
2018-12-04T04:17:25.767Z,21.78
2018-12-04T04:18:03.621Z,21.78
2018-12-04T04:18:41.218Z,21.79
2018-12-04T04:19:19.080Z,21.79
2018-12-04T04:19:57.195Z,21.79
2018-12-04T04:20:34.851Z,21.79
2018-12-04T04:21:12.688Z,21.80
2018-12-04T04:21:52.220Z,21.80
2018-12-04T04:22:29.997Z,21.80
2018-12-04T04:23:08.100Z,21.79
2018-12-04T04:23:45.839Z,21.79
2018-12-04T04:24:23.685Z,21.80
2018-12-04T04:25:01.544Z,21.80
2018-12-04T04:25:39.607Z,21.79
2018-12-04T04:26:18.198Z,21.79
2018-12-04T04:26:55.874Z,21.80
2018-12-04T04:27:33.736Z,21.80
2018-12-04T04:28:11.536Z,21.80
2018-12-04T04:28:49.497Z,21.80
2018-12-04T04:29:27.349Z,21.80
2018-12-04T04:30:05.326Z,21.80
2018-12-04T04:30:43.329Z,21.80
2018-12-04T04:31:21.050Z,21.81
2018-12-04T04:31:59.266Z,21.81
2018-12-04T04:32:37.055Z,21.81
2018-12-04T04:33:14.871Z,21.81
2018-12-04T04:33:52.394Z,21.80
2018-12-04T04:34:30.270Z,21.81
2018-12-04T04:35:08.215Z,21.80
2018-12-04T04:35:46.034Z,21.81
2018-12-04T04:36:23.903Z,21.82
2018-12-04T04:37:02.137Z,21.81
2018-12-04T04:37:39.774Z,21.81
2018-12-04T04:38:17.795Z,21.81
2018-12-04T04:38:55.784Z,21.81
2018-12-04T04:39:33.811Z,21.81
2018-12-04T04:40:11.874Z,21.81
2018-12-04T04:40:49.463Z,21.82
2018-12-04T04:41:27.384Z,21.82
2018-12-04T04:42:05.237Z,21.82
2018-12-04T04:42:43.456Z,21.82
2018-12-04T04:43:21.001Z,21.82
2018-12-04T04:43:59.071Z,21.82
2018-12-04T04:44:36.761Z,21.82
2018-12-04T04:45:14.823Z,21.82
2018-12-04T04:45:52.684Z,21.82
2018-12-04T04:46:30.597Z,21.84
2018-12-04T04:47:08.340Z,21.83
2018-12-04T04:47:46.521Z,21.83
2018-12-04T04:48:24.320Z,21.83
2018-12-04T04:49:02.566Z,21.83
2018-12-04T04:49:40.391Z,21.83
2018-12-04T04:50:18.514Z,21.84
2018-12-04T04:50:56.474Z,21.84
2018-12-04T04:51:34.340Z,21.83
2018-12-04T04:52:12.341Z,21.83
2018-12-04T04:52:50.172Z,21.84
2018-12-04T04:53:28.146Z,21.83
2018-12-04T04:54:05.887Z,21.84
2018-12-04T04:54:43.810Z,21.84
2018-12-04T04:55:22.100Z,21.84
2018-12-04T04:56:00.006Z,21.83
2018-12-04T04:56:37.819Z,21.84
2018-12-04T04:57:15.574Z,21.84
2018-12-04T04:57:53.321Z,21.83
2018-12-04T04:58:31.300Z,21.85
2018-12-04T04:59:09.350Z,21.84
2018-12-04T04:59:46.860Z,21.84
2018-12-04T05:00:24.592Z,21.85
2018-12-04T05:01:02.469Z,21.84
2018-12-04T05:01:40.482Z,21.86
2018-12-04T05:02:18.318Z,21.84
2018-12-04T05:02:56.420Z,21.85
2018-12-04T05:03:34.422Z,21.85
2018-12-04T05:04:12.249Z,21.85
2018-12-04T05:04:49.962Z,21.84
2018-12-04T05:05:27.800Z,21.78
2018-12-04T05:06:06.729Z,21.72
2018-12-04T05:06:44.311Z,21.67
2018-12-04T05:07:22.310Z,21.63
2018-12-04T05:08:00.130Z,21.60
2018-12-04T05:08:37.749Z,21.57
2018-12-04T05:09:15.570Z,21.56
2018-12-04T05:09:53.180Z,21.54
2018-12-04T05:10:30.796Z,21.53
2018-12-04T05:11:08.765Z,21.51
2018-12-04T05:11:46.739Z,21.50
2018-12-04T05:12:24.538Z,21.52
2018-12-04T05:13:02.280Z,21.49
2018-12-04T05:13:40.210Z,21.49
2018-12-04T05:14:17.926Z,21.49
2018-12-04T05:14:55.841Z,21.48
2018-12-04T05:15:33.650Z,21.47
2018-12-04T05:16:11.297Z,21.49
2018-12-04T05:16:49.123Z,21.48
2018-12-04T05:17:27.043Z,21.49
2018-12-04T05:18:04.848Z,21.47
2018-12-04T05:18:42.808Z,21.47
2018-12-04T05:19:20.643Z,21.47
2018-12-04T05:19:58.640Z,21.46
2018-12-04T05:20:36.392Z,21.46
2018-12-04T05:21:14.110Z,21.45
2018-12-04T05:21:51.793Z,21.45
2018-12-04T05:22:29.790Z,21.44
2018-12-04T05:23:07.681Z,21.45
2018-12-04T05:23:45.723Z,21.45
2018-12-04T05:24:23.952Z,21.44
2018-12-04T05:25:01.580Z,21.43
2018-12-04T05:25:39.220Z,21.43
2018-12-04T05:26:16.840Z,21.43
2018-12-04T05:26:55.054Z,21.44
2018-12-04T05:27:32.812Z,21.43
2018-12-04T05:28:10.633Z,21.49
2018-12-04T05:28:48.804Z,21.51
2018-12-04T05:29:26.611Z,21.55
2018-12-04T05:30:04.451Z,21.58
2018-12-04T05:30:42.404Z,21.61
2018-12-04T05:31:20.391Z,21.65
2018-12-04T05:31:58.159Z,21.68
2018-12-04T05:32:36.267Z,21.70
2018-12-04T05:33:14.254Z,21.72
2018-12-04T05:33:52.323Z,21.75
2018-12-04T05:34:30.105Z,21.76
2018-12-04T05:35:07.793Z,21.78
2018-12-04T05:35:46.172Z,21.78
2018-12-04T05:36:24.043Z,21.80
2018-12-04T05:37:01.838Z,21.81
2018-12-04T05:37:39.653Z,21.82
2018-12-04T05:38:17.749Z,21.83
2018-12-04T05:38:55.585Z,21.83
2018-12-04T05:39:33.438Z,21.85
2018-12-04T05:40:11.504Z,21.87
2018-12-04T05:40:49.594Z,21.89
2018-12-04T05:41:27.496Z,21.89
2018-12-04T05:42:05.238Z,21.89
2018-12-04T05:42:43.487Z,21.90
2018-12-04T05:43:21.227Z,21.91
2018-12-04T05:43:59.066Z,21.91
2018-12-04T05:44:36.927Z,21.92
2018-12-04T05:45:14.706Z,21.93
2018-12-04T05:45:52.961Z,21.92
2018-12-04T05:46:30.777Z,21.93
2018-12-04T05:47:08.568Z,21.93
2018-12-04T05:47:46.555Z,21.93
2018-12-04T05:48:24.288Z,21.94
2018-12-04T05:49:03.255Z,21.92
2018-12-04T05:49:41.007Z,21.95
2018-12-04T05:50:18.679Z,21.95
2018-12-04T05:50:56.506Z,21.97
2018-12-04T05:51:34.707Z,21.98
2018-12-04T05:52:12.626Z,21.99
2018-12-04T05:52:50.311Z,21.99
2018-12-04T05:53:28.137Z,21.98
2018-12-04T05:54:05.857Z,21.98
2018-12-04T05:54:43.828Z,21.95
2018-12-04T05:55:21.458Z,21.98
2018-12-04T05:55:59.500Z,21.99
2018-12-04T05:56:37.528Z,21.99
2018-12-04T05:57:15.909Z,22.00
2018-12-04T05:57:53.970Z,22.00
2018-12-04T05:58:31.798Z,22.00
2018-12-04T05:59:09.878Z,21.99
2018-12-04T05:59:47.712Z,22.00
2018-12-04T06:00:25.527Z,21.98
2018-12-04T06:01:03.387Z,21.99
2018-12-04T06:01:41.271Z,22.00
2018-12-04T06:02:19.590Z,21.99
2018-12-04T06:02:58.230Z,21.99
2018-12-04T06:03:36.217Z,21.98
2018-12-04T06:04:13.998Z,21.99
2018-12-04T06:04:51.907Z,21.98
2018-12-04T06:05:30.023Z,21.99
2018-12-04T06:06:07.898Z,21.98
2018-12-04T06:06:45.757Z,21.98
2018-12-04T06:07:23.356Z,21.98
2018-12-04T06:08:01.536Z,21.98
2018-12-04T06:08:39.142Z,21.98
2018-12-04T06:09:16.988Z,21.98
2018-12-04T06:09:54.818Z,21.98
2018-12-04T06:10:32.780Z,21.98
2018-12-04T06:11:10.673Z,21.99
2018-12-04T06:11:48.965Z,21.97
2018-12-04T06:12:26.654Z,21.98
2018-12-04T06:13:04.552Z,21.98
2018-12-04T06:13:42.773Z,21.98
2018-12-04T06:14:20.827Z,21.98
2018-12-04T06:14:58.921Z,21.99
2018-12-04T06:15:36.681Z,21.98
2018-12-04T06:16:14.701Z,21.98
2018-12-04T06:16:52.674Z,21.99
2018-12-04T06:17:30.260Z,21.99
2018-12-04T06:18:08.045Z,21.99
2018-12-04T06:18:46.516Z,21.99
2018-12-04T06:19:24.451Z,22.00
2018-12-04T06:20:02.379Z,21.98
2018-12-04T06:20:41.020Z,22.00
2018-12-04T06:21:19.034Z,22.00
2018-12-04T06:21:56.731Z,22.00
2018-12-04T06:22:34.683Z,22.00
2018-12-04T06:23:12.630Z,22.00
2018-12-04T06:23:50.642Z,22.01
2018-12-04T06:24:28.460Z,22.00
2018-12-04T06:25:06.363Z,22.00
2018-12-04T06:25:44.452Z,21.99
2018-12-04T06:26:22.355Z,21.99
2018-12-04T06:27:00.242Z,22.00
2018-12-04T06:27:38.461Z,21.99
2018-12-04T06:28:16.257Z,22.00
2018-12-04T06:28:53.982Z,22.00
2018-12-04T06:29:31.892Z,22.00
2018-12-04T06:30:09.694Z,22.00
2018-12-04T06:30:47.306Z,22.00
2018-12-04T06:31:25.232Z,22.00
2018-12-04T06:32:02.914Z,22.02
2018-12-04T06:32:40.754Z,22.01
2018-12-04T06:33:18.381Z,22.00
2018-12-04T06:33:56.074Z,22.00
2018-12-04T06:34:33.835Z,22.01
2018-12-04T06:35:11.582Z,22.01
2018-12-04T06:35:49.446Z,22.01
2018-12-04T06:36:27.364Z,22.00
2018-12-04T06:37:05.175Z,21.99
2018-12-04T06:37:43.069Z,22.00
2018-12-04T06:38:21.139Z,22.01
2018-12-04T06:38:58.914Z,22.01
2018-12-04T06:39:36.900Z,22.00
2018-12-04T06:40:14.645Z,22.02
2018-12-04T06:40:52.511Z,22.00
2018-12-04T06:41:30.963Z,21.99
2018-12-04T06:42:08.712Z,22.01
2018-12-04T06:42:46.665Z,22.01
2018-12-04T06:43:24.769Z,22.01
2018-12-04T06:44:02.812Z,22.00
2018-12-04T06:44:40.610Z,22.01
2018-12-04T06:45:18.495Z,22.01
2018-12-04T06:45:56.294Z,22.00
2018-12-04T06:46:34.367Z,22.00
2018-12-04T06:47:12.146Z,22.01
2018-12-04T06:47:50.113Z,22.01
2018-12-04T06:48:27.851Z,22.01
2018-12-04T06:49:05.374Z,22.01
2018-12-04T06:49:43.760Z,22.00
2018-12-04T06:50:21.603Z,22.01
2018-12-04T06:50:59.486Z,22.01
2018-12-04T06:51:37.233Z,22.01
2018-12-04T06:52:15.005Z,22.00
2018-12-04T06:52:52.959Z,22.01
2018-12-04T06:53:30.627Z,22.01
2018-12-04T06:54:08.674Z,22.02
2018-12-04T06:54:46.683Z,22.01
2018-12-04T06:55:24.807Z,22.02
2018-12-04T06:56:02.717Z,22.01
2018-12-04T06:56:40.637Z,22.02
2018-12-04T06:57:18.366Z,22.01
2018-12-04T06:57:56.270Z,22.02
2018-12-04T06:58:34.350Z,22.03
2018-12-04T06:59:12.347Z,22.02
2018-12-04T06:59:50.047Z,22.02
2018-12-04T07:00:27.991Z,22.02
2018-12-04T07:01:05.929Z,22.02
2018-12-04T07:01:44.046Z,22.02
2018-12-04T07:02:22.039Z,22.02
2018-12-04T07:02:59.887Z,22.02
2018-12-04T07:03:37.468Z,22.03
2018-12-04T07:04:15.347Z,22.02
2018-12-04T07:04:53.449Z,22.03
2018-12-04T07:05:32.045Z,22.03
2018-12-04T07:06:10.280Z,22.02
2018-12-04T07:06:48.538Z,22.02
2018-12-04T07:07:26.347Z,22.03
2018-12-04T07:08:04.263Z,22.04
2018-12-04T07:08:42.293Z,22.02
2018-12-04T07:09:21.019Z,22.03
2018-12-04T07:09:58.838Z,22.02
2018-12-04T07:10:37.721Z,22.03
2018-12-04T07:11:15.600Z,22.03
2018-12-04T07:11:53.442Z,22.03
2018-12-04T07:12:31.052Z,22.04
2018-12-04T07:13:08.760Z,22.03
2018-12-04T07:13:46.532Z,22.05
2018-12-04T07:14:24.172Z,22.04
2018-12-04T07:15:01.926Z,22.05
2018-12-04T07:15:40.008Z,22.05
2018-12-04T07:16:17.995Z,22.04
2018-12-04T07:16:55.818Z,22.04
2018-12-04T07:17:33.710Z,22.04
2018-12-04T07:18:11.562Z,22.04
2018-12-04T07:18:49.365Z,22.05
2018-12-04T07:19:26.949Z,22.05
2018-12-04T07:20:04.953Z,22.05
2018-12-04T07:20:42.587Z,22.05
2018-12-04T07:21:20.266Z,22.05
2018-12-04T07:21:58.303Z,22.05
2018-12-04T07:22:36.242Z,22.05
2018-12-04T07:23:13.972Z,22.06
2018-12-04T07:23:51.939Z,22.05
2018-12-04T07:24:29.913Z,22.06
2018-12-04T07:25:07.833Z,22.06
2018-12-04T07:25:45.692Z,22.06
2018-12-04T07:26:23.822Z,22.06
2018-12-04T07:27:01.952Z,22.05
2018-12-04T07:27:39.793Z,22.06
2018-12-04T07:28:17.722Z,22.06
2018-12-04T07:28:55.796Z,22.06
2018-12-04T07:29:33.294Z,22.06
2018-12-04T07:30:11.268Z,22.06
2018-12-04T07:30:49.044Z,22.06
2018-12-04T07:31:27.109Z,22.06
2018-12-04T07:32:04.884Z,22.07
2018-12-04T07:32:42.934Z,22.06
2018-12-04T07:33:20.785Z,22.07
2018-12-04T07:33:58.525Z,22.07
2018-12-04T07:34:36.375Z,22.05
2018-12-04T07:35:14.505Z,22.06
2018-12-04T07:35:52.414Z,22.07
2018-12-04T07:36:30.626Z,22.07
2018-12-04T07:37:08.522Z,22.07
2018-12-04T07:37:46.347Z,22.08
2018-12-04T07:38:23.907Z,22.07
2018-12-04T07:39:01.917Z,22.07
2018-12-04T07:39:39.773Z,22.06
2018-12-04T07:40:17.859Z,22.07
2018-12-04T07:40:55.709Z,22.07
2018-12-04T07:41:33.754Z,22.08
2018-12-04T07:42:11.749Z,22.07
2018-12-04T07:42:50.519Z,22.07
2018-12-04T07:43:28.740Z,22.07
2018-12-04T07:44:07.253Z,22.07
2018-12-04T07:44:45.052Z,22.07
2018-12-04T07:45:23.179Z,22.06
2018-12-04T07:46:00.984Z,22.08
2018-12-04T07:46:38.875Z,22.07
2018-12-04T07:47:17.029Z,22.07
2018-12-04T07:47:54.564Z,22.08
2018-12-04T07:48:32.454Z,22.06
2018-12-04T07:49:10.247Z,22.07
2018-12-04T07:49:48.379Z,22.06
2018-12-04T07:50:26.255Z,22.07
2018-12-04T07:51:04.065Z,22.06
2018-12-04T07:51:42.077Z,22.07
2018-12-04T07:52:20.096Z,22.06
2018-12-04T07:52:58.097Z,22.08
2018-12-04T07:53:35.801Z,22.08
2018-12-04T07:54:13.989Z,22.06
2018-12-04T07:54:51.669Z,22.08
2018-12-04T07:55:29.479Z,22.06
2018-12-04T07:56:07.266Z,22.06
2018-12-04T07:56:44.873Z,22.07
2018-12-04T07:57:23.162Z,22.08
2018-12-04T07:58:01.070Z,22.07
2018-12-04T07:58:38.641Z,22.06
2018-12-04T07:59:16.416Z,22.07
2018-12-04T07:59:54.283Z,22.06
2018-12-04T08:00:32.318Z,22.08
2018-12-04T08:01:10.131Z,22.07
2018-12-04T08:01:48.282Z,22.07
2018-12-04T08:02:26.255Z,22.08
2018-12-04T08:03:04.055Z,22.07
2018-12-04T08:03:41.982Z,22.07
2018-12-04T08:04:19.827Z,22.07
2018-12-04T08:04:57.665Z,22.07
2018-12-04T08:05:35.688Z,22.09
2018-12-04T08:06:13.705Z,22.08
2018-12-04T08:06:51.466Z,22.08
2018-12-04T08:07:29.523Z,22.07
2018-12-04T08:08:07.258Z,22.08